createdAt,value
2023-02-20T00:01:06.930Z,8.85
2023-02-20T00:03:37.141Z,8.86
2023-02-20T00:06:04.751Z,8.79
2023-02-20T00:08:32.044Z,8.71
2023-02-20T00:10:59.433Z,8.74
2023-02-20T00:13:26.784Z,8.72
2023-02-20T00:15:55.140Z,8.81
2023-02-20T00:18:22.570Z,8.71
2023-02-20T00:20:49.998Z,8.73
2023-02-20T00:23:17.288Z,8.74
2023-02-20T00:25:44.708Z,8.76
2023-02-20T00:28:12.096Z,8.72
2023-02-20T00:30:39.592Z,8.91
2023-02-20T00:33:07.000Z,8.79
2023-02-20T00:35:34.451Z,8.75
2023-02-20T00:38:02.897Z,8.62
2023-02-20T00:40:30.306Z,8.64
2023-02-20T00:42:57.619Z,8.66
2023-02-20T00:45:24.932Z,8.78
2023-02-20T00:47:52.240Z,8.70
2023-02-20T00:50:19.721Z,8.73
2023-02-20T00:52:47.055Z,8.66
2023-02-20T00:55:14.437Z,8.67
2023-02-20T00:57:44.555Z,8.65
2023-02-20T01:00:21.372Z,8.64
2023-02-20T01:02:48.730Z,8.64
2023-02-20T01:05:16.260Z,8.63
2023-02-20T01:07:43.590Z,8.63
2023-02-20T01:10:11.783Z,8.61
2023-02-20T01:12:40.872Z,8.63
2023-02-20T01:15:09.230Z,8.63
2023-02-20T01:17:36.513Z,8.61
2023-02-20T01:20:04.027Z,8.61
2023-02-20T01:22:33.286Z,8.64
2023-02-20T01:25:00.628Z,8.63
2023-02-20T01:27:30.768Z,8.61
2023-02-20T01:30:00.371Z,8.59
2023-02-20T01:32:27.651Z,8.57
2023-02-20T01:34:55.136Z,8.60
2023-02-20T01:37:22.570Z,8.63
2023-02-20T01:39:50.010Z,8.70
2023-02-20T01:42:24.161Z,8.80
2023-02-20T01:44:56.058Z,8.77
2023-02-20T01:47:24.067Z,8.71
2023-02-20T01:49:51.436Z,8.67
2023-02-20T01:52:31.924Z,8.67
2023-02-20T01:55:13.421Z,8.67
2023-02-20T01:57:48.455Z,8.66
2023-02-20T02:00:20.175Z,8.67
2023-02-20T02:02:59.821Z,8.68
2023-02-20T02:05:29.569Z,8.68
2023-02-20T02:07:58.636Z,8.68
2023-02-20T02:10:31.147Z,8.70
2023-02-20T02:12:58.409Z,8.69
2023-02-20T02:15:26.992Z,8.70
2023-02-20T02:18:23.815Z,8.72
2023-02-20T02:21:28.874Z,8.70
2023-02-20T02:24:28.462Z,8.72
2023-02-20T02:27:27.123Z,8.78
2023-02-20T02:30:13.029Z,8.74
2023-02-20T02:33:17.974Z,8.74
2023-02-20T02:36:16.164Z,8.71
2023-02-20T02:38:52.853Z,8.70
2023-02-20T02:41:25.881Z,8.68
2023-02-20T02:44:16.140Z,8.66
2023-02-20T02:47:10.668Z,8.63
2023-02-20T02:49:53.723Z,8.69
2023-02-20T02:52:38.863Z,8.69
2023-02-20T02:55:07.551Z,8.69
2023-02-20T02:57:35.105Z,8.68
2023-02-20T03:00:38.601Z,8.67
2023-02-20T03:03:14.720Z,8.63
2023-02-20T03:05:58.070Z,8.65
2023-02-20T03:08:40.376Z,8.66
2023-02-20T03:11:20.824Z,8.66
2023-02-20T03:14:22.557Z,8.68
2023-02-20T03:16:57.645Z,8.69
2023-02-20T03:19:31.600Z,8.70
2023-02-20T03:22:02.838Z,8.64
2023-02-20T03:24:55.843Z,8.63
2023-02-20T03:27:42.906Z,8.66
2023-02-20T03:30:36.429Z,8.61
2023-02-20T03:33:37.929Z,8.62
2023-02-20T03:36:27.647Z,8.61
2023-02-20T03:39:20.919Z,8.60
2023-02-20T03:42:09.033Z,8.59
2023-02-20T03:44:41.973Z,8.55
2023-02-20T03:47:13.990Z,8.55
2023-02-20T03:49:42.930Z,8.57
2023-02-20T03:52:13.597Z,8.59
2023-02-20T03:54:42.116Z,8.54
2023-02-20T03:57:27.041Z,8.49
2023-02-20T04:00:08.409Z,8.45
2023-02-20T04:02:45.247Z,8.45
2023-02-20T04:05:20.214Z,8.44
2023-02-20T04:07:51.507Z,8.44
2023-02-20T04:10:26.113Z,8.43
2023-02-20T04:12:56.906Z,8.43
2023-02-20T04:15:25.688Z,8.44
2023-02-20T04:18:00.101Z,8.48
2023-02-20T04:20:27.604Z,8.52
2023-02-20T04:23:14.138Z,8.54
2023-02-20T04:25:50.419Z,8.56
2023-02-20T04:28:18.783Z,8.54
2023-02-20T04:30:59.421Z,8.52
2023-02-20T04:33:27.065Z,8.53
2023-02-20T04:36:00.026Z,8.53
2023-02-20T04:38:27.353Z,8.56
2023-02-20T04:40:56.110Z,8.61
2023-02-20T04:43:23.876Z,8.55
2023-02-20T04:45:52.358Z,8.50
2023-02-20T04:48:19.806Z,8.48
2023-02-20T04:50:47.884Z,8.44
2023-02-20T04:53:18.287Z,8.42
2023-02-20T04:55:45.851Z,8.43
2023-02-20T04:58:16.442Z,8.48
2023-02-20T05:00:53.264Z,8.50
2023-02-20T05:03:20.685Z,8.53
2023-02-20T05:05:48.180Z,8.58
2023-02-20T05:08:18.341Z,8.59
2023-02-20T05:10:46.768Z,8.65
2023-02-20T05:13:14.096Z,8.65
2023-02-20T05:15:41.488Z,8.70
2023-02-20T05:18:08.851Z,8.70
2023-02-20T05:20:54.810Z,8.73
2023-02-20T05:23:22.157Z,8.79
2023-02-20T05:25:49.525Z,8.76
2023-02-20T05:28:17.822Z,8.70
2023-02-20T05:30:45.261Z,8.70
2023-02-20T05:33:12.627Z,8.69
2023-02-20T05:35:40.769Z,8.71
2023-02-20T05:38:08.077Z,8.69
2023-02-20T05:40:35.434Z,8.71
2023-02-20T05:43:02.713Z,8.70
2023-02-20T05:45:30.089Z,8.72
2023-02-20T05:47:57.393Z,8.71
2023-02-20T05:50:24.729Z,8.84
2023-02-20T05:52:52.002Z,8.77
2023-02-20T05:55:19.365Z,8.81
2023-02-20T05:57:46.668Z,8.76
2023-02-20T06:00:14.476Z,8.81
2023-02-20T06:02:41.800Z,8.73
2023-02-20T06:05:09.235Z,8.75
2023-02-20T06:07:36.572Z,8.76
2023-02-20T06:10:06.902Z,8.73
2023-02-20T06:12:34.208Z,8.73
2023-02-20T06:15:01.575Z,8.74
2023-02-20T06:17:30.590Z,8.75
2023-02-20T06:19:57.908Z,8.73
2023-02-20T06:22:25.221Z,8.68
2023-02-20T06:24:52.704Z,8.73
2023-02-20T06:27:20.013Z,8.86
2023-02-20T06:29:48.421Z,8.82
2023-02-20T06:32:17.041Z,8.81
2023-02-20T06:34:45.558Z,8.77
2023-02-20T06:37:15.729Z,8.78
2023-02-20T06:39:45.811Z,8.74
2023-02-20T06:42:13.147Z,8.78
2023-02-20T06:44:40.539Z,8.88
2023-02-20T06:47:09.151Z,8.87
2023-02-20T06:49:37.120Z,8.81
2023-02-20T06:52:06.395Z,8.80
2023-02-20T06:54:34.439Z,8.84
2023-02-20T06:57:02.575Z,8.95
2023-02-20T06:59:29.954Z,8.98
2023-02-20T07:01:57.665Z,8.97
2023-02-20T07:04:28.150Z,8.99
2023-02-20T07:06:56.266Z,8.92
2023-02-20T07:09:25.212Z,8.86
2023-02-20T07:11:54.394Z,8.91
2023-02-20T07:14:22.251Z,8.94
2023-02-20T07:16:49.614Z,9.07
2023-02-20T07:19:16.920Z,9.01
2023-02-20T07:21:47.007Z,9.11
2023-02-20T07:24:14.675Z,9.09
2023-02-20T07:26:42.047Z,9.05
2023-02-20T07:29:09.589Z,9.07
2023-02-20T07:31:37.096Z,9.13
2023-02-20T07:34:04.631Z,9.19
2023-02-20T07:36:37.003Z,9.10
2023-02-20T07:39:08.610Z,9.18
2023-02-20T07:41:36.089Z,9.25
2023-02-20T07:44:06.487Z,9.18
2023-02-20T07:46:36.714Z,9.28
2023-02-20T07:49:05.646Z,9.27
2023-02-20T07:51:33.320Z,9.29
2023-02-20T07:54:01.274Z,9.24
2023-02-20T07:56:29.488Z,9.31
2023-02-20T07:58:56.842Z,9.28
2023-02-20T08:01:25.198Z,9.27
2023-02-20T08:47:37.423Z,9.71
2023-02-20T08:50:07.289Z,9.80
2023-02-20T08:52:34.690Z,9.88
2023-02-20T08:55:02.152Z,9.75
2023-02-20T08:57:29.470Z,9.76
2023-02-20T08:59:56.852Z,9.77
2023-02-20T09:02:28.644Z,9.89
2023-02-20T09:04:57.527Z,9.88
2023-02-20T09:07:25.244Z,9.93
2023-02-20T09:09:52.609Z,9.99
2023-02-20T09:12:20.218Z,10.13
2023-02-20T09:14:47.641Z,10.17
2023-02-20T09:17:17.881Z,10.20
2023-02-20T09:19:45.305Z,10.29
2023-02-20T09:22:12.605Z,10.30
2023-02-20T09:24:39.935Z,10.36
2023-02-20T09:27:07.346Z,10.42
2023-02-20T09:29:36.796Z,10.62
2023-02-20T09:32:04.416Z,10.80
2023-02-20T09:34:31.871Z,10.87
2023-02-20T09:36:59.220Z,10.94
2023-02-20T09:39:26.621Z,11.05
2023-02-20T09:42:12.401Z,11.13
2023-02-20T09:45:00.695Z,11.26
2023-02-20T09:47:38.212Z,11.51
2023-02-20T09:50:13.240Z,12.02
2023-02-20T09:52:45.011Z,12.70
2023-02-20T09:55:19.682Z,13.20
2023-02-20T09:57:53.613Z,13.00
2023-02-20T10:00:37.063Z,13.66
2023-02-20T10:03:17.699Z,14.56
2023-02-20T10:05:47.078Z,15.11
2023-02-20T10:08:20.984Z,15.70
2023-02-20T10:10:53.056Z,16.26
2023-02-20T10:13:33.856Z,16.64
2023-02-20T10:16:31.975Z,17.69
2023-02-20T10:19:20.060Z,18.05
2023-02-20T10:21:52.178Z,17.70
2023-02-20T10:24:58.062Z,18.22
2023-02-20T10:27:54.819Z,17.45
2023-02-20T10:30:44.908Z,17.69
2023-02-20T10:33:26.138Z,17.26
2023-02-20T10:36:25.489Z,17.12
2023-02-20T10:39:11.350Z,17.36
2023-02-20T10:41:58.026Z,17.40
2023-02-20T10:44:28.196Z,17.44
2023-02-20T10:47:03.997Z,17.54
2023-02-20T10:49:40.462Z,17.53
2023-02-20T10:52:29.479Z,17.94
2023-02-20T10:55:18.051Z,18.24
2023-02-20T10:57:49.970Z,17.97
2023-02-20T11:00:27.428Z,17.10
2023-02-20T11:03:20.024Z,16.79
2023-02-20T11:06:01.021Z,16.76
2023-02-20T11:08:28.566Z,16.77
2023-02-20T11:11:00.708Z,16.44
2023-02-20T11:13:28.051Z,16.64
2023-02-20T11:15:56.987Z,16.08
2023-02-20T11:18:30.570Z,16.41
2023-02-20T11:20:59.740Z,16.28
2023-02-20T11:23:36.855Z,16.25
2023-02-20T11:26:33.471Z,15.34
2023-02-20T11:29:12.618Z,16.05
2023-02-20T11:31:40.760Z,16.27
2023-02-20T11:34:18.508Z,16.02
2023-02-20T11:36:51.399Z,16.20
2023-02-20T11:39:28.541Z,16.54
2023-02-20T11:42:18.635Z,16.51
2023-02-20T11:44:48.601Z,15.78
2023-02-20T11:47:21.512Z,16.37
2023-02-20T11:49:49.153Z,16.43
2023-02-20T11:52:20.021Z,16.74
2023-02-20T11:55:08.229Z,16.29
2023-02-20T11:57:42.655Z,16.53
2023-02-20T12:00:19.962Z,16.29
2023-02-20T12:02:51.893Z,15.71
2023-02-20T12:05:19.608Z,15.40
2023-02-20T12:07:52.665Z,15.63
2023-02-20T12:10:42.236Z,15.95
2023-02-20T12:13:16.264Z,16.40
2023-02-20T12:15:49.800Z,16.38
2023-02-20T12:18:41.949Z,15.98
2023-02-20T12:21:19.550Z,15.11
2023-02-20T12:23:51.883Z,15.18
2023-02-20T12:26:23.905Z,15.14
2023-02-20T12:29:01.210Z,14.61
2023-02-20T12:31:50.169Z,14.78
2023-02-20T12:34:31.077Z,15.06
2023-02-20T12:37:06.353Z,15.60
2023-02-20T12:39:47.013Z,15.31
2023-02-20T12:42:38.858Z,15.80
2023-02-20T12:45:28.238Z,16.19
2023-02-20T12:48:17.049Z,15.98
2023-02-20T12:51:10.809Z,15.59
2023-02-20T12:53:47.761Z,15.63
2023-02-20T12:56:52.955Z,15.48
2023-02-20T12:59:58.149Z,15.06
2023-02-20T13:02:40.942Z,14.92
2023-02-20T13:05:14.890Z,15.13
2023-02-20T13:07:50.644Z,15.41
2023-02-20T13:10:23.098Z,15.22
2023-02-20T13:12:51.795Z,15.44
2023-02-20T13:15:34.077Z,15.37
2023-02-20T13:18:22.248Z,15.23
2023-02-20T13:20:57.234Z,15.12
2023-02-20T13:23:24.499Z,14.60
2023-02-20T13:25:53.361Z,14.88
2023-02-20T13:28:20.611Z,14.78
2023-02-20T13:31:15.826Z,14.89
2023-02-20T13:33:48.797Z,15.21
2023-02-20T13:36:37.144Z,14.98
2023-02-20T13:39:34.552Z,15.03
2023-02-20T13:42:05.939Z,14.98
2023-02-20T13:44:36.042Z,14.88
2023-02-20T13:47:22.120Z,15.17
2023-02-20T13:49:59.905Z,14.94
2023-02-20T13:52:34.019Z,14.99
2023-02-20T13:55:20.779Z,14.99
2023-02-20T13:57:54.717Z,15.04
2023-02-20T14:00:45.797Z,14.90
2023-02-20T14:03:20.783Z,15.06
2023-02-20T14:06:08.694Z,14.92
2023-02-20T14:08:38.565Z,14.76
2023-02-20T14:11:23.977Z,14.88
2023-02-20T14:13:53.524Z,14.86
2023-02-20T14:16:31.489Z,14.64
2023-02-20T14:19:00.927Z,14.57
2023-02-20T14:21:30.000Z,14.59
2023-02-20T14:23:57.789Z,14.37
2023-02-20T14:26:30.743Z,14.35
2023-02-20T14:28:59.841Z,14.20
2023-02-20T14:31:34.039Z,14.20
2023-02-20T14:34:20.509Z,13.99
2023-02-20T14:37:12.565Z,14.11
2023-02-20T14:40:01.417Z,14.22
2023-02-20T14:42:29.045Z,14.27
2023-02-20T14:45:06.265Z,14.22
2023-02-20T14:47:35.683Z,14.20
2023-02-20T14:50:16.726Z,14.22
2023-02-20T14:52:44.187Z,14.31
2023-02-20T14:55:18.180Z,14.24
2023-02-20T14:57:45.467Z,14.55
2023-02-20T15:00:28.315Z,14.38
2023-02-20T15:02:56.545Z,14.48
2023-02-20T15:05:34.301Z,14.44
2023-02-20T15:08:18.148Z,14.61
2023-02-20T15:10:54.780Z,14.61
2023-02-20T15:13:26.468Z,14.72
2023-02-20T15:16:06.381Z,14.64
2023-02-20T15:18:38.176Z,14.61
2023-02-20T15:21:06.544Z,14.74
2023-02-20T15:23:36.676Z,14.84
2023-02-20T15:26:31.981Z,14.70
2023-02-20T15:29:18.568Z,14.65
2023-02-20T15:31:54.957Z,14.71
2023-02-20T15:34:31.113Z,14.46
2023-02-20T15:36:59.295Z,14.41
2023-02-20T15:39:27.040Z,14.35
2023-02-20T15:44:22.692Z,14.18
2023-02-20T15:46:49.960Z,14.12
2023-02-20T15:49:20.884Z,14.09
2023-02-20T15:51:52.379Z,13.98
2023-02-20T15:54:21.975Z,13.94
2023-02-20T15:56:51.425Z,13.78
2023-02-20T15:59:19.132Z,13.71
2023-02-20T16:01:46.903Z,13.62
2023-02-20T16:04:18.005Z,13.56
2023-02-20T16:06:45.948Z,13.50
2023-02-20T16:09:31.911Z,13.48
2023-02-20T16:12:00.194Z,13.46
2023-02-20T16:14:27.673Z,13.44
2023-02-20T16:16:55.053Z,13.49
2023-02-20T16:19:36.536Z,13.43
2023-02-20T16:22:09.454Z,13.38
2023-02-20T16:24:38.862Z,13.27
2023-02-20T16:27:21.667Z,13.18
2023-02-20T16:29:51.020Z,13.08
2023-02-20T16:32:26.763Z,13.07
2023-02-20T16:34:56.639Z,13.03
2023-02-20T16:37:25.549Z,12.98
2023-02-20T16:39:53.002Z,12.89
2023-02-20T16:42:22.273Z,12.83
2023-02-20T16:44:49.993Z,12.75
2023-02-20T16:47:20.944Z,12.63
2023-02-20T16:49:49.020Z,12.45
2023-02-20T16:52:23.110Z,12.39
2023-02-20T16:54:51.719Z,12.19
2023-02-20T16:57:21.585Z,12.08
2023-02-20T16:59:49.694Z,12.07
2023-02-20T17:02:23.204Z,12.05
2023-02-20T17:04:51.234Z,12.05
2023-02-20T17:07:18.874Z,12.06
2023-02-20T17:09:49.116Z,12.07
2023-02-20T17:12:19.836Z,12.05
2023-02-20T17:14:47.788Z,11.91
2023-02-20T17:17:18.279Z,11.84
2023-02-20T17:19:46.068Z,11.84
2023-02-20T17:22:13.865Z,11.84
2023-02-20T17:24:43.063Z,11.83
2023-02-20T17:27:12.054Z,11.78
2023-02-20T17:29:42.698Z,11.71
2023-02-20T17:32:10.355Z,11.67
2023-02-20T17:34:37.954Z,11.66
2023-02-20T17:37:09.229Z,11.65
2023-02-20T17:39:37.696Z,11.60
2023-02-20T17:42:05.704Z,11.53
2023-02-20T17:44:33.349Z,11.38
2023-02-20T17:47:01.231Z,11.25
2023-02-20T17:49:29.012Z,11.14
2023-02-20T17:52:01.024Z,11.08
2023-02-20T17:54:28.865Z,11.05
2023-02-20T17:56:56.068Z,11.00
2023-02-20T17:59:23.838Z,10.93
2023-02-20T18:01:52.093Z,10.90
2023-02-20T18:04:21.266Z,10.91
2023-02-20T18:06:49.052Z,10.86
2023-02-20T18:09:18.497Z,10.86
2023-02-20T18:11:46.429Z,10.76
2023-02-20T18:14:14.448Z,10.66
2023-02-20T18:16:41.913Z,10.63
2023-02-20T18:19:13.682Z,10.57
2023-02-20T18:21:42.744Z,10.54
2023-02-20T18:24:11.343Z,10.57
2023-02-20T18:26:39.613Z,10.59
2023-02-20T18:29:07.338Z,10.58
2023-02-20T18:31:35.069Z,10.53
2023-02-20T18:34:02.687Z,10.54
2023-02-20T18:36:30.583Z,10.51
2023-02-20T18:38:58.144Z,10.54
2023-02-20T18:41:26.267Z,10.55
2023-02-20T18:43:53.745Z,10.50
2023-02-20T18:46:39.737Z,10.48
2023-02-20T18:49:07.771Z,10.55
2023-02-20T18:51:37.926Z,10.48
2023-02-20T18:54:06.827Z,10.40
2023-02-20T18:56:36.422Z,10.36
2023-02-20T18:59:04.917Z,10.37
2023-02-20T19:01:34.056Z,10.38
2023-02-20T19:04:05.770Z,10.34
2023-02-20T19:06:45.233Z,10.33
2023-02-20T19:09:22.015Z,10.30
2023-02-20T19:11:55.619Z,10.24
2023-02-20T19:14:25.396Z,10.22
2023-02-20T19:16:57.588Z,10.22
2023-02-20T19:19:27.731Z,10.20
2023-02-20T19:21:56.574Z,10.14
2023-02-20T19:24:24.796Z,10.13
2023-02-20T19:26:52.234Z,10.12
2023-02-20T19:29:20.470Z,10.04
2023-02-20T19:31:48.092Z,9.98
2023-02-20T19:34:15.598Z,9.95
2023-02-20T19:36:42.974Z,9.82
2023-02-20T19:39:10.744Z,9.88
2023-02-20T19:41:39.442Z,9.84
2023-02-20T19:44:07.762Z,9.74
2023-02-20T19:46:35.585Z,9.73
2023-02-20T19:49:09.717Z,9.72
2023-02-20T19:51:37.042Z,9.69
2023-02-20T19:54:04.636Z,9.64
2023-02-20T19:56:32.010Z,9.64
2023-02-20T19:58:59.348Z,9.64
2023-02-20T20:01:26.744Z,9.65
2023-02-20T20:03:54.130Z,9.67
2023-02-20T20:06:27.459Z,9.63
2023-02-20T20:09:11.656Z,9.73
2023-02-20T20:11:42.125Z,9.67
2023-02-20T20:14:09.660Z,9.53
2023-02-20T20:16:42.808Z,9.44
2023-02-20T20:19:11.028Z,9.37
2023-02-20T20:21:38.417Z,9.30
2023-02-20T20:24:08.333Z,9.23
2023-02-20T20:26:35.608Z,9.23
2023-02-20T20:29:04.006Z,9.27
2023-02-20T20:31:41.054Z,9.21
2023-02-20T20:34:09.162Z,9.24
2023-02-20T20:36:36.468Z,9.22
2023-02-20T20:39:04.696Z,9.20
2023-02-20T20:41:43.908Z,9.18
2023-02-20T20:44:13.207Z,9.15
2023-02-20T20:46:40.896Z,9.15
2023-02-20T20:49:10.769Z,9.15
2023-02-20T20:51:38.135Z,9.11
2023-02-20T20:54:07.295Z,9.10
2023-02-20T20:56:34.743Z,9.13
2023-02-20T20:59:02.138Z,9.10
2023-02-20T21:01:29.620Z,9.12
2023-02-20T21:03:57.068Z,9.05
2023-02-20T21:06:24.346Z,9.07
2023-02-20T21:08:51.662Z,9.10
2023-02-20T21:11:19.047Z,9.05
2023-02-20T21:13:47.459Z,9.00
2023-02-20T21:16:18.732Z,9.02
2023-02-20T21:18:46.566Z,8.96
2023-02-20T21:21:14.492Z,8.92
2023-02-20T21:23:45.187Z,8.83
2023-02-20T21:26:13.283Z,8.83
2023-02-20T21:28:40.794Z,8.87
2023-02-20T21:31:08.193Z,8.77
2023-02-20T21:33:35.658Z,8.77
2023-02-20T21:36:04.831Z,8.84
2023-02-20T21:38:36.074Z,8.81
2023-02-20T21:41:04.463Z,8.74
2023-02-20T21:43:50.179Z,8.72
2023-02-20T21:46:20.656Z,8.76
2023-02-20T21:48:48.036Z,8.62
2023-02-20T21:51:20.514Z,8.61
2023-02-20T21:53:47.877Z,8.64
2023-02-20T21:56:15.136Z,8.68
2023-02-20T21:59:01.858Z,8.63
2023-02-20T22:01:31.183Z,8.54
2023-02-20T22:03:58.996Z,8.40
2023-02-20T22:06:26.735Z,8.38
2023-02-20T22:09:12.988Z,8.41
2023-02-20T22:11:58.691Z,8.36
2023-02-20T22:14:44.604Z,8.44
2023-02-20T22:17:30.487Z,8.44
2023-02-20T22:20:16.346Z,8.48
2023-02-20T22:23:07.725Z,8.49
2023-02-20T22:25:53.586Z,8.33
2023-02-20T22:28:39.563Z,8.42
2023-02-20T22:31:25.343Z,8.36
2023-02-20T22:34:11.658Z,8.36
2023-02-20T22:37:00.941Z,8.37
2023-02-20T22:39:46.724Z,8.28
2023-02-20T22:42:35.143Z,8.20
2023-02-20T22:45:22.244Z,8.21
2023-02-20T22:48:08.891Z,8.31
2023-02-20T22:50:54.637Z,8.33
2023-02-20T22:53:40.482Z,8.20
2023-02-20T22:56:26.753Z,8.25
2023-02-20T22:59:12.605Z,8.27
2023-02-20T23:01:58.415Z,8.32
2023-02-20T23:04:44.108Z,8.32
2023-02-20T23:07:29.900Z,8.30
2023-02-20T23:10:15.913Z,8.24
2023-02-20T23:13:01.701Z,8.23
2023-02-20T23:15:47.558Z,8.25
2023-02-20T23:18:33.801Z,8.20
2023-02-20T23:21:19.402Z,8.07
2023-02-20T23:24:06.129Z,8.13
2023-02-20T23:26:52.393Z,8.10
2023-02-20T23:29:38.384Z,7.94
2023-02-20T23:32:24.989Z,8.07
2023-02-20T23:35:11.385Z,8.04
2023-02-20T23:37:57.299Z,8.09
2023-02-20T23:40:43.225Z,8.08
2023-02-20T23:43:29.197Z,8.03
2023-02-20T23:46:14.803Z,8.02
2023-02-20T23:49:01.317Z,8.02
2023-02-20T23:51:47.300Z,8.12
2023-02-20T23:54:33.220Z,8.17
2023-02-20T23:57:18.930Z,8.03
